Time;durP1;ratioP1;P1;durP2;ratioP2;P2;SDS_P1;SDS_P2;PMS_P1;PMS_P2;Temp;Humidity;BMP_temperature;BMP_pressure;BME280_temperature;BME280_humidity;BME280_pressure;Samples;Min_cycle;Max_cycle;Signal;HPM_P1;HPM_P2
2022/07/30 00:02:06;;;;;;;3.33;1.42;;;;;;;15.79;78.12;92564.94;5033008;28;20086;-74
2022/07/30 00:04:32;;;;;;;3.83;1.17;;;;;;;15.84;75.57;92560.56;5016625;28;20123;-74
2022/07/30 00:06:58;;;;;;;1.92;1.30;;;;;;;15.90;73.48;92559.31;5050728;28;20037;-75
2022/07/30 00:09:24;;;;;;;2.65;1.20;;;;;;;15.94;72.66;92555.72;5050654;28;20053;-74
2022/07/30 00:11:50;;;;;;;2.72;1.30;;;;;;;15.99;71.47;92558.19;5050829;28;20248;-74
2022/07/30 00:14:15;;;;;;;3.30;1.20;;;;;;;16.04;71.84;92559.88;5050718;28;20037;-75
2022/07/30 00:16:41;;;;;;;3.47;1.30;;;;;;;16.07;71.64;92559.22;5050564;28;20041;-74
2022/07/30 00:19:06;;;;;;;4.55;1.40;;;;;;;16.08;71.61;92554.72;5016247;28;20041;-74
2022/07/30 00:21:32;;;;;;;2.20;1.30;;;;;;;16.10;71.50;92553.31;5050635;28;20549;-74
2022/07/30 00:23:58;;;;;;;3.50;1.50;;;;;;;16.10;71.48;92558.59;5032908;28;20047;-73
2022/07/30 00:26:24;;;;;;;2.20;1.42;;;;;;;16.10;71.56;92557.81;5032681;28;20078;-74
2022/07/30 00:28:49;;;;;;;4.57;1.17;;;;;;;16.10;70.82;92558.59;5016263;28;20411;-74
2022/07/30 00:31:15;;;;;;;4.00;1.30;;;;;;;16.06;72.10;92556.91;5050575;28;20025;-74
2022/07/30 00:33:41;;;;;;;2.47;1.25;;;;;;;16.05;72.42;92564.03;5016178;28;20494;-74
2022/07/30 00:36:06;;;;;;;2.55;1.40;;;;;;;16.01;72.46;92566.56;5032512;28;20094;-74
2022/07/30 00:38:32;;;;;;;3.17;1.40;;;;;;;16.16;68.68;92564.47;5016067;28;20085;-75
2022/07/30 00:40:58;;;;;;;1.30;1.17;;;;;;;16.18;69.38;92564.91;5032654;28;20037;-74
2022/07/30 00:43:23;;;;;;;2.22;1.35;;;;;;;16.18;70.30;92563.06;5050470;28;20029;-75
2022/07/30 00:45:49;;;;;;;3.63;1.60;;;;;;;16.13;71.08;92562.47;5032613;28;20079;-74
2022/07/30 00:48:15;;;;;;;3.03;1.35;;;;;;;16.09;71.20;92572.13;5034100;28;20144;-74
2022/07/30 00:50:41;;;;;;;2.08;1.45;;;;;;;16.07;70.29;92569.00;5036332;28;20418;-74
2022/07/30 00:53:08;;;;;;;3.55;1.30;;;;;;;16.06;69.70;92559.56;5035984;28;20057;-74
2022/07/30 00:55:34;;;;;;;2.20;1.38;;;;;;;16.10;67.56;92565.72;5054039;28;20446;-74
2022/07/30 00:58:00;;;;;;;4.88;1.52;;;;;;;16.18;66.46;92563.06;5054071;28;20029;-74
2022/07/30 01:00:26;;;;;;;2.45;1.27;;;;;;;16.45;62.95;92563.69;5019562;28;20036;-74
2022/07/30 01:02:52;;;;;;;2.33;1.30;;;;;;;16.40;63.88;92572.56;5036153;28;20049;-74
2022/07/30 01:05:18;;;;;;;2.50;1.40;;;;;;;16.32;65.08;92575.25;5019840;28;20029;-74
2022/07/30 01:07:43;;;;;;;3.30;1.30;;;;;;;16.29;66.31;92573.25;5003284;28;20486;-74
2022/07/30 01:10:13;;;;;;;1.92;1.30;;;;;;;16.21;66.50;92585.41;5036295;28;20059;-74
2022/07/30 01:12:39;;;;;;;4.45;1.48;;;;;;;16.15;66.94;92581.41;5053607;28;20044;-74
2022/07/30 01:15:07;;;;;;;2.00;1.30;;;;;;;16.10;66.10;92568.38;5035869;28;20021;-74
2022/07/30 01:17:33;;;;;;;3.00;1.30;;;;;;;16.20;61.46;92578.59;5035828;28;20037;-74
2022/07/30 01:20:03;;;;;;;2.63;1.30;;;;;;;16.37;60.29;92578.50;5035587;28;20499;-74
2022/07/30 01:22:43;;;;;;;2.15;1.13;;;;;;;16.55;59.34;92570.47;5053552;28;20121;-75
2022/07/30 01:25:31;;;;;;;6.25;1.40;;;;;;;16.73;57.97;92577.19;5036720;28;20123;-74
2022/07/30 01:28:03;;;;;;;2.85;1.30;;;;;;;16.83;56.75;92576.84;5055543;28;20036;-75
2022/07/30 01:30:32;;;;;;;;;;;;;;;16.93;56.39;92573.06;5055878;28;20036;-75
2022/07/30 01:32:58;;;;;;;2.63;1.30;;;;;;;16.99;55.44;92573.63;5073456;28;19919;-75
2022/07/30 01:35:26;;;;;;;2.10;1.30;;;;;;;17.01;54.48;92577.47;5073552;28;20511;-75
2022/07/30 01:37:54;;;;;;;2.25;1.23;;;;;;;17.05;54.58;92580.25;5055370;28;20103;-75
2022/07/30 01:40:21;;;;;;;4.15;1.20;;;;;;;17.08;53.63;92570.91;5055221;28;20036;-74
2022/07/30 01:42:52;;;;;;;8.30;1.30;;;;;;;17.28;52.19;92578.03;5055398;28;20589;-74
2022/07/30 01:45:18;;;;;;;2.20;1.00;;;;;;;17.28;52.61;92572.75;5055217;28;20056;-75
2022/07/30 01:47:44;;;;;;;2.55;1.30;;;;;;;17.35;53.11;92567.69;5022143;28;20482;-74
2022/07/30 01:50:13;;;;;;;3.08;1.40;;;;;;;17.31;52.51;92563.38;5073431;28;20040;-74
2022/07/30 01:52:42;;;;;;;2.58;1.35;;;;;;;17.28;51.08;92556.88;5071660;28;20513;-74
2022/07/30 01:55:11;;;;;;;2.45;1.50;;;;;;;17.25;51.65;92566.25;5054969;28;20506;-74
2022/07/30 01:57:38;;;;;;;6.47;1.33;;;;;;;17.23;51.55;92567.66;5055013;28;20036;-74
2022/07/30 02:00:07;;;;;;;4.97;1.40;;;;;;;17.22;52.12;92564.22;5054544;28;20249;-74
2022/07/30 02:02:42;;;;;;;1.98;1.20;;;;;;;17.31;50.22;92564.16;5072943;28;20024;-74
2022/07/30 02:05:08;;;;;;;2.28;1.10;;;;;;;17.43;49.59;92574.03;5038500;28;20047;-75
2022/07/30 02:07:36;;;;;;;2.00;1.27;;;;;;;17.45;49.33;92571.81;5055077;28;20040;-74
2022/07/30 02:10:12;;;;;;;4.03;1.40;;;;;;;17.52;48.63;92564.13;5072826;28;20020;-74
2022/07/30 02:12:53;;;;;;;2.13;1.17;;;;;;;17.55;48.25;92565.34;5038758;28;20032;-74
2022/07/30 02:15:44;;;;;;;5.82;1.27;;;;;;;17.55;48.79;92568.00;5047499;28;20032;-75
2022/07/30 02:18:27;;;;;;;3.95;1.40;;;;;;;17.51;48.19;92551.97;5052534;28;20033;-74
2022/07/30 02:20:57;;;;;;;;;;;;;;;17.63;47.62;92556.53;5035252;28;20049;-75
2022/07/30 02:23:25;;;;;;;1.52;1.20;;;;;;;17.62;48.35;92550.47;5034643;28;20011;-75
2022/07/30 02:25:50;;;;;;;2.55;1.33;;;;;;;17.50;48.25;92553.09;5034421;28;20041;-75
2022/07/30 02:28:22;;;;;;;5.90;1.60;;;;;;;17.52;48.32;92561.47;5034532;28;20029;-74
2022/07/30 02:30:54;;;;;;;2.40;1.30;;;;;;;17.61;47.46;92553.47;5034435;28;20044;-74
2022/07/30 02:33:28;;;;;;;1.63;1.00;;;;;;;17.55;48.11;92552.88;5052335;28;20040;-74
2022/07/30 02:35:55;;;;;;;3.53;1.35;;;;;;;17.64;46.88;92553.56;5034290;28;20115;-74
2022/07/30 02:38:21;;;;;;;2.92;1.40;;;;;;;17.60;47.47;92550.00;5034434;28;20033;-74
2022/07/30 02:40:47;;;;;;;2.00;1.25;;;;;;;17.65;47.04;92551.69;5052175;28;20033;-75
2022/07/30 02:43:15;;;;;;;2.00;1.30;;;;;;;17.65;47.40;92549.81;5034196;28;20033;-74
2022/07/30 02:45:42;;;;;;;2.15;1.33;;;;;;;17.69;47.55;92548.03;5034611;28;20386;-74
2022/07/30 02:48:09;;;;;;;2.75;1.30;;;;;;;17.65;47.03;92547.19;5034320;28;20041;-75
2022/07/30 02:50:38;;;;;;;2.25;1.30;;;;;;;17.63;47.63;92548.59;5034579;28;20032;-74
2022/07/30 02:53:09;;;;;;;4.80;1.55;;;;;;;17.62;47.11;92539.09;5034094;28;20106;-74
2022/07/30 02:55:37;;;;;;;2.03;1.30;;;;;;;17.59;48.03;92540.53;5033803;28;20033;-75
2022/07/30 02:58:05;;;;;;;2.78;1.40;;;;;;;17.59;47.71;92542.41;5017509;28;20051;-74
2022/07/30 03:00:32;;;;;;;2.33;1.20;;;;;;;17.58;47.26;92541.63;5033846;28;20044;-74
2022/07/30 03:02:58;;;;;;;4.72;1.60;;;;;;;17.64;45.88;92542.97;5017613;28;20506;-74
2022/07/30 03:05:25;;;;;;;2.83;1.30;;;;;;;17.67;46.04;92542.34;5051650;28;20040;-74
2022/07/30 03:07:55;;;;;;;6.80;1.23;;;;;;;17.77;45.32;92540.34;5051597;28;20041;-74
2022/07/30 03:10:21;;;;;;;3.58;1.30;;;;;;;17.79;46.54;92540.81;5033127;28;20032;-74
2022/07/30 03:12:49;;;;;;;3.38;1.40;;;;;;;17.71;46.88;92531.06;5051390;28;20043;-74
2022/07/30 03:15:15;;;;;;;4.75;1.40;;;;;;;17.72;46.83;92533.41;5036651;28;20033;-74
2022/07/30 03:17:45;;;;;;;3.67;1.38;;;;;;;17.68;46.19;92533.28;5053761;28;20037;-75
2022/07/30 03:20:16;;;;;;;5.53;1.50;;;;;;;17.62;46.32;92529.28;5036727;28;20040;-74
2022/07/30 03:22:46;;;;;;;2.85;1.50;;;;;;;17.62;46.35;92529.28;5053494;28;20394;-74
2022/07/30 03:25:14;;;;;;;4.90;1.40;;;;;;;17.57;46.95;92529.50;5053597;28;20044;-74
2022/07/30 03:27:41;;;;;;;5.18;1.50;;;;;;;17.60;46.49;92525.44;5053529;28;20308;-75
2022/07/30 03:30:08;;;;;;;6.60;1.35;;;;;;;17.57;47.24;92528.75;5053389;28;20032;-74
2022/07/30 03:32:35;;;;;;;6.10;1.60;;;;;;;17.52;47.05;92524.44;5036822;28;20077;-74
2022/07/30 03:35:01;;;;;;;3.92;1.75;;;;;;;17.57;46.36;92518.91;5053180;28;20063;-74
2022/07/30 03:37:28;;;;;;;3.20;1.67;;;;;;;17.69;46.69;92523.44;5053556;28;20486;-74
2022/07/30 03:39:56;;;;;;;2.67;1.30;;;;;;;17.63;46.29;92514.16;5053243;28;20045;-74
2022/07/30 03:42:23;;;;;;;4.80;1.40;;;;;;;17.67;46.13;92521.16;5053163;28;20032;-75
2022/07/30 03:44:49;;;;;;;2.33;1.30;;;;;;;17.63;46.80;92520.25;5051134;28;20600;-73
2022/07/30 03:47:16;;;;;;;2.50;1.40;;;;;;;17.63;46.89;92514.97;5036604;28;20037;-74
2022/07/30 03:49:46;;;;;;;3.90;1.58;;;;;;;17.55;47.37;92512.41;5037105;28;20033;-74
2022/07/30 03:52:12;;;;;;;2.92;1.40;;;;;;;17.53;46.48;92515.38;5036498;28;20045;-74
2022/07/30 03:54:38;;;;;;;3.85;1.60;;;;;;;17.55;45.71;92502.59;5052886;28;20052;-74
2022/07/30 03:57:24;;;;;;;2.65;1.42;;;;;;;17.52;47.04;92502.47;5039577;28;20083;-74
2022/07/30 03:59:51;;;;;;;3.30;1.52;;;;;;;17.49;47.97;92509.19;5052869;28;20139;-74
2022/07/30 04:02:17;;;;;;;3.47;1.40;;;;;;;17.49;47.72;92514.47;5052986;28;20024;-74
2022/07/30 04:04:56;;;;;;;3.00;1.50;;;;;;;17.52;46.73;92507.75;5052897;28;20033;-75
2022/07/30 04:07:22;;;;;;;3.75;1.30;;;;;;;17.58;46.39;92520.44;5046147;28;20524;-74
2022/07/30 04:09:48;;;;;;;2.20;1.33;;;;;;;17.67;46.53;92521.16;5032946;28;20040;-74
2022/07/30 04:12:29;;;;;;;3.00;1.50;;;;;;;17.63;47.01;92528.19;5032983;28;20059;-74
2022/07/30 04:14:56;;;;;;;4.88;1.60;;;;;;;17.59;47.67;92537.13;5017989;28;20348;-75
2022/07/30 04:17:28;;;;;;;3.58;1.48;;;;;;;17.53;47.98;92535.78;5036472;28;20059;-74
2022/07/30 04:20:04;;;;;;;4.47;1.60;;;;;;;17.45;48.47;92540.84;5052715;28;20498;-74
2022/07/30 04:22:33;;;;;;;6.25;1.70;;;;;;;17.40;49.67;92538.38;5054772;28;20032;-75
2022/07/30 04:25:00;;;;;;;2.80;1.45;;;;;;;17.35;48.46;92540.47;5056821;28;20068;-75
2022/07/30 04:27:26;;;;;;;4.63;1.60;;;;;;;17.34;48.84;92536.28;5040131;28;20133;-74
2022/07/30 04:29:54;;;;;;;5.72;1.63;;;;;;;17.37;48.86;92546.97;5056713;28;20043;-74
2022/07/30 04:32:19;;;;;;;3.75;1.70;;;;;;;17.50;47.25;92547.81;5056779;28;20127;-74
2022/07/30 04:35:03;;;;;;;3.35;1.77;;;;;;;17.50;48.01;92550.44;5073558;28;20040;-75
2022/07/30 04:37:48;;;;;;;3.65;1.50;;;;;;;17.52;48.64;92560.69;5053716;28;20107;-74
2022/07/30 04:40:13;;;;;;;2.67;1.50;;;;;;;17.57;48.04;92563.16;5050136;28;20470;-74
2022/07/30 04:42:39;;;;;;;2.92;1.60;;;;;;;17.59;48.28;92556.41;5040393;28;20032;-77
2022/07/30 04:45:09;;;;;;;5.30;1.80;;;;;;;17.61;48.74;92561.41;5044498;28;20430;-76
2022/07/30 04:48:04;;;;;;;3.63;1.90;;;;;;;17.62;49.63;92560.28;5064989;28;20050;-80
2022/07/30 04:50:32;;;;;;;3.00;1.50;;;;;;;17.60;50.02;92557.94;5072389;28;20119;-77
2022/07/30 04:52:59;;;;;;;6.82;1.80;;;;;;;17.60;50.04;92563.25;5027046;28;20503;-76
2022/07/30 04:55:34;;;;;;;3.13;1.73;;;;;;;17.60;50.57;92557.94;5050326;28;20036;-78
2022/07/30 04:58:01;;;;;;;5.22;1.80;;;;;;;17.57;51.62;92568.44;5051559;28;20665;-76
2022/07/30 05:00:30;;;;;;;6.22;1.92;;;;;;;17.59;50.36;92569.66;5035031;28;20029;-77
2022/07/30 05:02:56;;;;;;;4.18;1.70;;;;;;;17.62;50.36;92570.88;5051003;28;20095;-77
2022/07/30 05:05:24;;;;;;;3.63;1.52;;;;;;;17.60;52.04;92567.78;5054359;28;20045;-77
2022/07/30 05:07:53;;;;;;;3.85;1.60;;;;;;;17.57;52.60;92571.09;5053651;28;20028;-77
2022/07/30 05:10:19;;;;;;;3.70;1.73;;;;;;;17.50;53.31;92568.97;5055538;28;20452;-77
2022/07/30 05:12:45;;;;;;;6.10;2.00;;;;;;;17.43;54.32;92569.50;5039074;28;20040;-77
2022/07/30 05:15:11;;;;;;;3.55;1.70;;;;;;;17.45;54.13;92574.44;5073343;28;20036;-77
2022/07/30 05:17:37;;;;;;;3.38;1.60;;;;;;;17.45;54.38;92575.25;5072166;28;20074;-77
2022/07/30 05:20:05;;;;;;;4.88;1.83;;;;;;;17.42;54.54;92567.16;5072118;28;20126;-77
2022/07/30 05:22:47;;;;;;;3.03;1.67;;;;;;;17.48;54.48;92576.47;5041277;28;20123;-77
2022/07/30 05:25:13;;;;;;;2.90;1.60;;;;;;;17.51;54.09;92582.97;5055416;28;20044;-77
2022/07/30 05:27:38;;;;;;;5.03;1.65;;;;;;;17.55;54.21;92573.28;5055626;28;20570;-77
2022/07/30 05:30:04;;;;;;;4.05;1.80;;;;;;;17.59;54.01;92584.78;5073454;28;20482;-77
2022/07/30 05:32:36;;;;;;;3.60;1.70;;;;;;;17.62;54.37;92587.50;5055296;28;20041;-77
2022/07/30 05:35:02;;;;;;;2.65;1.55;;;;;;;17.69;54.54;92585.09;5046213;28;20469;-77
2022/07/30 05:37:27;;;;;;;3.88;1.67;;;;;;;17.76;54.43;92594.38;5035260;28;20556;-77
2022/07/30 05:39:53;;;;;;;4.95;1.80;;;;;;;17.86;52.26;92591.38;5019042;28;20040;-77
2022/07/30 05:42:40;;;;;;;2.67;1.70;;;;;;;18.00;51.42;92594.47;5052729;28;20165;-77
2022/07/30 05:45:07;;;;;;;3.85;1.70;;;;;;;18.13;51.78;92591.84;5036040;28;20033;-77
2022/07/30 05:47:33;;;;;;;2.95;1.75;;;;;;;18.21;52.63;92604.19;5049183;28;20047;-77
2022/07/30 05:49:58;;;;;;;3.28;1.60;;;;;;;18.29;53.90;92604.09;5053387;28;20040;-77
2022/07/30 05:52:24;;;;;;;3.15;1.70;;;;;;;18.36;53.70;92603.56;5055096;28;20125;-77
2022/07/30 05:54:54;;;;;;;4.63;1.83;;;;;;;18.44;53.83;92605.31;5053423;28;20053;-78
2022/07/30 05:57:22;;;;;;;3.58;1.60;;;;;;;18.49;54.13;92602.44;5049814;28;20041;-78
2022/07/30 05:59:49;;;;;;;15.15;1.95;;;;;;;18.57;54.09;92605.31;5044028;28;20045;-78
2022/07/30 06:02:50;;;;;;;4.17;1.70;;;;;;;18.71;55.02;92611.81;5033688;28;20046;-77
2022/07/30 06:05:24;;;;;;;3.67;1.60;;;;;;;19.24;54.67;92611.84;5032476;28;20041;-77
2022/07/30 06:07:50;;;;;;;3.90;1.75;;;;;;;20.23;49.64;92612.19;5043171;28;20098;-78
2022/07/30 06:10:19;;;;;;;3.55;1.70;;;;;;;21.26;48.61;92615.63;5031555;28;20060;-78
2022/07/30 06:12:45;;;;;;;3.15;1.63;;;;;;;22.18;45.37;92610.53;5033790;28;20037;-78
2022/07/30 06:15:11;;;;;;;3.60;1.70;;;;;;;22.97;45.91;92616.34;5033671;28;20419;-78
2022/07/30 06:17:43;;;;;;;6.40;1.77;;;;;;;23.78;41.09;92623.13;5058425;28;20095;-78
2022/07/30 06:20:17;;;;;;;3.72;1.55;;;;;;;24.43;41.71;92614.59;5038946;28;20403;-79
2022/07/30 06:22:54;;;;;;;6.18;1.67;;;;;;;25.29;40.66;92614.47;5037318;28;20069;-78
2022/07/30 06:25:28;;;;;;;3.53;1.80;;;;;;;25.23;35.30;92614.03;5055743;28;20033;-79
2022/07/30 06:27:54;;;;;;;5.07;1.77;;;;;;;25.86;37.83;92617.34;5049198;28;20088;-80
2022/07/30 06:30:20;;;;;;;5.72;1.80;;;;;;;26.38;38.97;92619.78;5032903;28;20058;-79
2022/07/30 06:32:46;;;;;;;5.45;1.90;;;;;;;26.81;38.76;92619.81;5042145;28;20037;-80
2022/07/30 06:35:13;;;;;;;4.88;1.75;;;;;;;27.32;35.86;92624.00;5038022;28;20037;-79
2022/07/30 06:37:38;;;;;;;10.55;1.80;;;;;;;27.77;36.72;92626.16;5054655;28;20237;-80
2022/07/30 06:40:05;;;;;;;4.53;1.88;;;;;;;28.20;34.95;92628.66;5046401;28;20055;-80
2022/07/30 06:42:59;;;;;;;3.88;1.65;;;;;;;28.58;32.27;92631.53;5030318;28;20028;-80
2022/07/30 06:45:33;;;;;;;3.00;1.70;;;;;;;28.58;29.88;92634.22;5055222;28;20483;-80
2022/07/30 06:48:25;;;;;;;3.40;1.73;;;;;;;27.74;32.05;92626.94;5054336;28;20399;-80
2022/07/30 06:50:51;;;;;;;6.20;1.90;;;;;;;27.39;33.62;92631.28;5006141;28;20033;-80
2022/07/30 06:53:17;;;;;;;5.25;1.90;;;;;;;26.58;34.19;92629.03;5041210;28;20057;-79
2022/07/30 06:56:01;;;;;;;4.93;1.77;;;;;;;26.44;33.95;92633.63;5045878;28;20044;-79
2022/07/30 06:58:35;;;;;;;3.33;1.73;;;;;;;26.49;34.25;92630.53;5045265;28;20249;-78
2022/07/30 07:01:36;;;;;;;6.13;2.00;;;;;;;25.96;35.31;92632.75;4982331;28;20255;-78
2022/07/30 07:04:03;;;;;;;5.90;1.70;;;;;;;25.93;35.07;92633.50;5007330;28;20056;-79
2022/07/30 07:06:28;;;;;;;6.28;1.80;;;;;;;25.89;33.99;92630.03;5046817;28;20114;-79
2022/07/30 07:08:54;;;;;;;4.13;1.63;;;;;;;25.76;35.98;92634.97;5053393;28;20036;-78
2022/07/30 07:11:27;;;;;;;5.82;1.70;;;;;;;25.86;35.58;92633.44;5045579;28;20033;-79
2022/07/30 07:13:55;;;;;;;3.80;1.60;;;;;;;25.81;32.87;92636.50;5033596;28;20037;-78
2022/07/30 07:16:30;;;;;;;3.13;1.60;;;;;;;26.03;34.64;92633.91;5025071;28;20064;-79
2022/07/30 07:18:58;;;;;;;5.47;1.73;;;;;;;26.16;32.66;92637.75;5037415;28;20114;-78
2022/07/30 07:21:24;;;;;;;6.30;1.65;;;;;;;26.42;33.63;92638.59;5051587;28;20520;-78
2022/07/30 07:23:52;;;;;;;3.53;1.63;;;;;;;26.33;35.44;92639.72;5052519;28;20071;-79
2022/07/30 07:26:37;;;;;;;7.88;1.67;;;;;;;26.15;32.97;92633.56;5051216;28;20041;-80
2022/07/30 07:29:03;;;;;;;3.58;1.60;;;;;;;26.44;35.63;92639.75;5052827;28;20128;-80
2022/07/30 07:31:29;;;;;;;2.30;1.50;;;;;;;26.68;33.91;92637.47;5053306;28;20028;-79
2022/07/30 07:33:55;;;;;;;2.53;1.50;;;;;;;26.68;33.02;92637.47;5050822;28;20039;-80
2022/07/30 07:36:21;;;;;;;3.22;1.60;;;;;;;26.79;34.06;92632.88;5053068;28;20033;-79
2022/07/30 07:38:47;;;;;;;3.22;1.60;;;;;;;26.79;30.63;92639.03;5051377;28;20045;-80
2022/07/30 07:41:13;;;;;;;4.15;1.65;;;;;;;26.58;34.10;92639.00;5032063;28;20124;-79
2022/07/30 07:43:39;;;;;;;5.60;1.70;;;;;;;26.61;31.86;92638.22;5045304;28;20068;-79
2022/07/30 07:46:08;;;;;;;4.00;1.77;;;;;;;25.75;30.97;92632.63;5036486;28;20162;-80
2022/07/30 07:48:34;;;;;;;3.67;1.67;;;;;;;25.64;34.06;92634.50;5051476;28;20044;-79
2022/07/30 07:51:24;;;;;;;3.28;1.80;;;;;;;25.84;34.22;92627.69;5038871;28;20469;-79
2022/07/30 07:53:50;;;;;;;4.97;1.75;;;;;;;25.17;33.56;92623.53;5047943;28;20056;-79
2022/07/30 07:56:15;;;;;;;5.13;1.65;;;;;;;25.44;35.97;92629.44;5050218;28;20498;-80
2022/07/30 07:58:41;;;;;;;3.03;1.70;;;;;;;25.43;34.14;92633.28;5035460;28;20036;-79
2022/07/30 08:01:09;;;;;;;4.57;1.55;;;;;;;25.23;34.44;92634.69;5051892;28;20487;-79
2022/07/30 08:03:54;;;;;;;4.45;1.70;;;;;;;25.28;34.88;92629.75;5051379;28;20024;-81
2022/07/30 08:06:48;;;;;;;5.22;1.80;;;;;;;25.05;36.91;92632.66;5030405;28;20526;-78
2022/07/30 08:09:43;;;;;;;4.38;1.77;;;;;;;25.27;33.98;92635.50;5033205;28;20480;-78
2022/07/30 08:12:29;;;;;;;4.22;1.40;;;;;;;25.24;33.58;92646.94;4996309;28;20053;-79
2022/07/30 08:15:13;;;;;;;4.40;1.70;;;;;;;25.04;33.69;92639.16;5042570;28;20045;-78
2022/07/30 08:17:57;;;;;;;3.05;1.60;;;;;;;24.77;33.43;92640.47;5038262;28;20052;-79
2022/07/30 08:20:40;;;;;;;4.85;1.77;;;;;;;24.33;34.82;92641.25;5051740;28;20301;-79
2022/07/30 08:23:06;;;;;;;3.20;1.77;;;;;;;24.33;36.73;92646.59;5035246;28;20162;-78
2022/07/30 08:25:33;;;;;;;4.43;1.70;;;;;;;24.49;36.26;92658.59;5049222;28;20032;-79
2022/07/30 08:28:01;;;;;;;4.45;1.73;;;;;;;24.51;35.13;92653.66;5046094;28;20033;-78
2022/07/30 08:30:27;;;;;;;4.38;1.60;;;;;;;24.24;32.62;92652.25;5049943;28;20120;-78
2022/07/30 08:32:54;;;;;;;7.78;1.80;;;;;;;24.22;34.10;92649.91;5033644;28;20037;-78
2022/07/30 08:35:20;;;;;;;3.85;1.77;;;;;;;24.66;37.78;92643.84;5048436;28;20040;-77
2022/07/30 08:37:46;;;;;;;4.15;1.70;;;;;;;24.78;36.32;92648.16;5029280;28;20037;-77
2022/07/30 08:40:12;;;;;;;3.10;1.50;;;;;;;24.85;38.16;92647.44;5049464;28;20029;-78
2022/07/30 08:42:49;;;;;;;3.83;1.90;;;;;;;24.68;38.90;92649.59;5041319;28;20164;-77
2022/07/30 08:45:17;;;;;;;2.85;1.58;;;;;;;25.08;36.87;92650.66;5042804;28;20056;-79
2022/07/30 08:47:45;;;;;;;7.63;1.90;;;;;;;25.48;34.59;92657.03;5035170;28;20028;-79
2022/07/30 08:50:11;;;;;;;7.22;1.90;;;;;;;25.05;31.78;92659.44;5052471;28;20043;-79
2022/07/30 08:52:54;;;;;;;3.30;1.80;;;;;;;25.33;36.60;92656.19;5037910;28;20041;-78
2022/07/30 08:55:21;;;;;;;5.32;1.83;;;;;;;25.38;37.74;92660.44;5032929;28;20048;-78
2022/07/30 08:57:48;;;;;;;3.63;1.80;;;;;;;25.26;36.62;92663.41;5042398;28;20067;-77
2022/07/30 09:00:14;;;;;;;6.07;1.85;;;;;;;25.52;40.23;92660.50;5025493;28;20124;-77
2022/07/30 09:02:40;;;;;;;3.67;1.63;;;;;;;25.83;31.85;92663.72;5015737;28;20029;-77
2022/07/30 09:05:06;;;;;;;4.30;1.85;;;;;;;25.96;33.15;92654.22;5033047;28;20131;-77
2022/07/30 09:07:33;;;;;;;5.20;1.70;;;;;;;25.80;31.76;92664.44;5034560;28;20056;-77
2022/07/30 09:10:00;;;;;;;4.00;1.73;;;;;;;25.69;31.83;92655.59;5057298;28;20040;-77
2022/07/30 09:12:43;;;;;;;4.40;1.65;;;;;;;25.58;33.18;92665.50;5054604;28;20032;-76
2022/07/30 09:15:16;;;;;;;2.60;1.70;;;;;;;25.74;33.69;92663.28;5043145;28;20072;-77
2022/07/30 09:17:52;;;;;;;3.35;1.70;;;;;;;25.61;32.84;92656.72;5046399;28;20036;-77
2022/07/30 09:20:21;;;;;;;3.97;2.00;;;;;;;25.59;32.83;92659.00;5053455;28;20119;-77
2022/07/30 09:22:50;;;;;;;7.20;1.90;;;;;;;25.88;33.95;92660.69;5054170;28;20040;-77
2022/07/30 09:25:44;;;;;;;3.50;1.70;;;;;;;26.04;32.49;92670.31;5037866;28;20047;-77
2022/07/30 09:28:31;;;;;;;3.47;1.70;;;;;;;26.04;31.45;92673.00;5053104;28;20052;-76
2022/07/30 09:31:12;;;;;;;2.78;1.80;;;;;;;26.45;30.33;92664.66;5043135;28;20032;-77
2022/07/30 09:34:01;;;;;;;4.78;1.80;;;;;;;26.16;30.66;92662.69;5022091;28;20059;-76
2022/07/30 09:37:15;;;;;;;4.97;1.70;;;;;;;26.32;32.58;92662.34;5019029;28;20091;-77
2022/07/30 09:40:17;;;;;;;3.33;1.60;;;;;;;26.37;29.12;92670.00;5016262;28;20050;-77
2022/07/30 09:43:10;;;;;;;2.65;1.40;;;;;;;26.33;30.48;92655.81;5069411;28;20109;-76
2022/07/30 09:45:50;;;;;;;7.53;1.83;;;;;;;26.50;30.59;92654.31;5057137;28;20039;-78
2022/07/30 09:48:27;;;;;;;3.38;1.58;;;;;;;26.24;29.35;92651.97;5057633;28;20047;-77
2022/07/30 09:50:54;;;;;;;3.20;1.80;;;;;;;26.15;29.03;92652.34;5034089;28;20482;-77
2022/07/30 09:53:23;;;;;;;3.75;1.90;;;;;;;26.18;29.96;92655.00;5063822;28;20056;-77
2022/07/30 09:55:49;;;;;;;4.32;1.90;;;;;;;26.57;28.91;92653.59;5051560;28;20486;-76
2022/07/30 09:58:15;;;;;;;4.18;1.88;;;;;;;26.51;29.75;92671.19;5049713;28;20037;-77
2022/07/30 10:00:41;;;;;;;3.83;1.88;;;;;;;26.33;27.27;92671.91;5034050;28;20049;-74
2022/07/30 10:03:24;;;;;;;7.80;1.80;;;;;;;26.09;28.65;92661.88;5049396;28;20119;-76
2022/07/30 10:06:09;;;;;;;4.53;1.90;;;;;;;26.21;28.69;92663.44;5051043;28;20055;-77
2022/07/30 10:08:55;;;;;;;4.68;1.90;;;;;;;26.36;30.19;92656.97;5035870;28;20037;-75
2022/07/30 10:11:22;;;;;;;4.53;2.10;;;;;;;26.56;27.64;92662.78;5048698;28;20048;-76
2022/07/30 10:13:58;;;;;;;5.75;2.15;;;;;;;26.47;27.83;92654.31;5048769;28;20040;-76
2022/07/30 10:16:25;;;;;;;7.95;1.98;;;;;;;26.18;29.18;92668.41;5054010;28;20029;-75
2022/07/30 10:18:55;;;;;;;4.20;1.80;;;;;;;26.41;26.74;92656.59;5050586;28;20037;-76
2022/07/30 10:21:50;;;;;;;4.82;1.90;;;;;;;26.38;29.00;92652.75;5012947;28;20112;-76
2022/07/30 10:24:34;;;;;;;4.13;1.60;;;;;;;26.10;28.14;92652.72;5049162;28;20095;-78
2022/07/30 10:27:19;;;;;;;4.18;1.90;;;;;;;25.93;27.78;92656.88;5047431;28;20521;-77
2022/07/30 10:30:14;;;;;;;3.20;1.80;;;;;;;25.91;28.04;92654.56;5038351;28;20098;-78
2022/07/30 10:32:41;;;;;;;5.07;2.10;;;;;;;26.15;30.12;92660.38;5050107;28;20041;-76
2022/07/30 10:35:07;;;;;;;4.88;2.08;;;;;;;26.29;29.48;92652.34;5048172;28;20037;-76
2022/07/30 10:37:37;;;;;;;3.70;1.85;;;;;;;26.36;29.47;92649.69;5043922;28;20044;-76
2022/07/30 10:40:11;;;;;;;4.82;1.80;;;;;;;26.49;27.38;92662.75;5048684;28;20037;-77
2022/07/30 10:43:00;;;;;;;5.13;1.88;;;;;;;26.64;27.85;92658.16;5047354;28;20024;-75
2022/07/30 10:45:48;;;;;;;6.07;2.10;;;;;;;26.72;30.32;92655.09;5045498;28;20040;-77
2022/07/30 10:48:16;;;;;;;3.72;2.00;;;;;;;26.91;25.71;92655.91;5049989;28;20131;-78
2022/07/30 10:50:56;;;;;;;3.30;1.85;;;;;;;27.05;28.20;92647.81;5031047;28;20398;-78
2022/07/30 10:53:36;;;;;;;3.10;1.90;;;;;;;27.00;27.79;92654.34;5054979;28;20060;-78
2022/07/30 10:56:18;;;;;;;4.03;1.90;;;;;;;26.97;27.72;92659.72;5067778;28;20032;-76
2022/07/30 10:59:03;;;;;;;5.03;2.00;;;;;;;26.79;28.35;92647.09;5042135;28;20061;-77
2022/07/30 11:01:47;;;;;;;4.35;2.05;;;;;;;27.12;29.30;92650.50;5060501;28;20080;-77
2022/07/30 11:04:18;;;;;;;6.85;1.90;;;;;;;27.43;27.50;92642.03;5063725;28;20032;-78
2022/07/30 11:06:44;;;;;;;5.65;2.40;;;;;;;27.40;27.26;92648.94;5061889;28;20064;-76
2022/07/30 11:09:36;;;;;;;5.57;2.10;;;;;;;26.48;28.57;92645.09;5053443;28;20039;-76
2022/07/30 11:12:03;;;;;;;3.83;2.03;;;;;;;27.00;27.91;92643.59;5059233;28;20033;-75
2022/07/30 11:14:44;;;;;;;7.00;2.03;;;;;;;26.54;27.65;92635.53;5035545;28;20054;-76
2022/07/30 11:17:11;;;;;;;5.60;2.10;;;;;;;26.68;27.79;92646.31;5034021;28;20040;-76
2022/07/30 11:20:19;;;;;;;6.15;2.00;;;;;;;26.79;27.81;92648.97;5052232;28;20027;-76
2022/07/30 11:22:47;;;;;;;4.55;2.15;;;;;;;26.41;28.37;92639.72;4992858;28;20152;-76
2022/07/30 11:25:33;;;;;;;6.07;2.13;;;;;;;26.80;27.94;92639.78;5003762;28;20068;-76
2022/07/30 11:28:00;;;;;;;3.88;2.10;;;;;;;26.36;28.08;92649.69;5041160;28;20041;-76
2022/07/30 11:30:31;;;;;;;5.35;2.00;;;;;;;26.23;27.24;92645.84;5045934;28;20037;-76
2022/07/30 11:33:03;;;;;;;4.40;2.00;;;;;;;26.03;28.58;92650.00;5047958;28;20565;-76
2022/07/30 11:35:30;;;;;;;4.13;2.03;;;;;;;26.11;29.53;92648.88;5031819;28;20044;-76
2022/07/30 11:37:59;;;;;;;5.45;2.33;;;;;;;26.04;28.33;92654.22;5060098;28;20150;-76
2022/07/30 11:40:32;;;;;;;7.10;2.28;;;;;;;26.07;31.02;92653.44;5049894;28;20563;-76
2022/07/30 11:43:16;;;;;;;5.22;2.20;;;;;;;25.67;28.66;92663.22;5068978;28;20032;-76
2022/07/30 11:45:43;;;;;;;4.55;2.10;;;;;;;26.17;30.80;92660.78;5049537;28;20524;-76
2022/07/30 11:48:11;;;;;;;4.40;2.38;;;;;;;26.73;31.48;92662.03;5059402;28;20021;-76
2022/07/30 11:50:38;;;;;;;6.45;2.20;;;;;;;26.83;31.62;92665.09;5049366;28;20082;-76
2022/07/30 11:53:12;;;;;;;4.65;2.20;;;;;;;27.29;30.29;92664.31;5052447;28;20055;-76
2022/07/30 11:55:41;;;;;;;3.70;2.00;;;;;;;27.33;26.56;92657.78;5050658;28;20029;-76